Time,TemperatureF,DewpointF,PressureIn,WindDirection,WindDirectionDegrees,WindSpeedMPH,WindSpeedGustMPH,Humidity,HourlyPrecipIn,Conditions,Clouds,dailyrainin,SoftwareType,DateUTC
2013-01-15 00:20:00,38.3,37.3,30.10,NNW,338,0.0,0.0,96,0.02,,SKC,1.67,VWS V14.00,2013-01-15 05:20:00,
2013-01-15 00:40:00,38.1,37.1,30.11,NNW,338,0.0,0.0,96,0.02,,SKC,1.67,VWS V14.00,2013-01-15 05:40:00,
2013-01-15 01:00:00,38.1,37.1,30.10,NNW,338,0.0,0.0,96,0.02,,SKC,1.63,VWS V14.00,2013-01-15 06:00:00,
2013-01-15 01:20:00,38.1,37.1,30.09,NNW,338,0.0,0.0,96,0.00,,SKC,1.63,VWS V14.00,2013-01-15 06:20:00,
2013-01-15 01:40:00,37.9,36.9,30.10,NNW,338,0.0,0.0,96,0.02,,SKC,1.65,VWS V14.00,2013-01-15 06:40:00,
2013-01-15 02:00:00,38.1,37.1,30.08,NNW,338,0.0,0.0,96,0.04,,SKC,1.55,VWS V14.00,2013-01-15 07:00:00,
2013-01-15 02:20:00,38.1,37.1,30.09,NNW,338,0.0,0.0,96,0.04,,SKC,1.55,VWS V14.00,2013-01-15 07:20:00,
2013-01-15 02:40:00,38.1,37.1,30.09,North,0,0.0,0.0,96,0.10,,SKC,1.63,VWS V14.00,2013-01-15 07:40:00,
2013-01-15 03:00:00,38.3,37.3,30.09,SW,225,0.0,2.9,96,0.14,,SKC,1.65,VWS V14.00,2013-01-15 08:00:00,
2013-01-15 03:20:00,38.5,37.4,30.07,NE,45,0.0,0.0,96,0.18,,SKC,1.69,VWS V14.00,2013-01-15 08:20:00,
2013-01-15 03:40:00,38.8,37.8,30.09,NNE,22,0.0,0.0,96,0.10,,SKC,1.71,VWS V14.00,2013-01-15 08:40:00,
2013-01-15 04:00:00,39.0,38.0,30.07,ENE,68,0.0,0.0,96,0.14,,SKC,1.77,VWS V14.00,2013-01-15 09:00:00,
2013-01-15 04:20:00,39.2,38.2,30.08,NNE,22,0.0,0.0,96,0.14,,SKC,1.81,VWS V14.00,2013-01-15 09:20:00,
2013-01-15 04:40:00,39.4,38.3,30.05,NNE,22,3.1,3.1,96,0.18,,SKC,1.88,VWS V14.00,2013-01-15 09:40:00,
2013-01-15 05:01:00,39.6,38.5,30.07,NNW,338,0.0,3.1,96,0.12,,SKC,1.90,VWS V14.00,2013-01-15 10:01:00,
2013-01-15 05:20:00,39.7,38.7,30.09,NW,315,0.0,0.0,96,0.12,,SKC,1.94,VWS V14.00,2013-01-15 10:20:00,
2013-01-15 05:40:00,39.9,38.9,30.08,ENE,68,0.0,0.0,96,0.14,,SKC,2.02,VWS V14.00,2013-01-15 10:40:00,
2013-01-15 06:20:00,40.5,39.4,30.07,East,90,0.0,0.0,96,0.16,,SKC,2.10,VWS V14.00,2013-01-15 11:20:00,
2013-01-15 06:40:00,40.5,39.4,30.10,WNW,292,0.0,0.0,96,0.10,,SKC,2.12,VWS V14.00,2013-01-15 11:40:00,
2013-01-15 07:01:00,40.5,39.4,30.09,WNW,292,0.0,2.7,96,0.04,,SKC,2.10,VWS V14.00,2013-01-15 12:01:00,
2013-01-15 07:20:00,40.1,39.0,30.10,NNW,338,0.0,0.0,96,0.02,,SKC,2.10,VWS V14.00,2013-01-15 12:20:00,
2013-01-15 07:40:00,39.9,38.9,30.11,South,180,0.0,0.0,96,0.00,,SKC,2.10,VWS V14.00,2013-01-15 12:40:00,
2013-01-15 08:20:00,39.6,38.5,30.13,West,270,0.0,0.0,96,0.02,,SKC,2.06,VWS V14.00,2013-01-15 13:20:00,
2013-01-15 08:40:00,39.4,38.3,30.12,NE,45,0.0,0.0,96,0.02,,SKC,2.06,VWS V14.00,2013-01-15 13:40:00,
2013-01-15 09:00:00,39.4,38.3,30.12,NNE,22,0.0,0.7,96,0.00,,SKC,2.00,VWS V14.00,2013-01-15 14:00:00,
2013-01-15 09:20:00,39.0,38.0,30.13,North,0,0.0,0.0,96,0.00,,SKC,2.00,VWS V14.00,2013-01-15 14:20:00,
2013-01-15 09:40:00,39.0,38.0,30.13,NNW,338,0.0,1.3,96,0.00,,SKC,2.00,VWS V14.00,2013-01-15 14:40:00,
2013-01-15 10:01:00,39.2,38.2,30.11,SE,135,0.0,0.0,96,0.00,,SKC,2.00,VWS V14.00,2013-01-15 15:01:00,
2013-01-15 10:20:00,39.4,38.3,30.11,South,180,0.0,1.1,96,0.00,,SKC,2.00,VWS V14.00,2013-01-15 15:20:00,
2013-01-15 11:00:00,39.4,38.3,30.10,North,0,0.0,2.7,96,0.00,,SKC,1.96,VWS V14.00,2013-01-15 16:00:00,
2013-01-15 11:40:00,39.4,38.3,30.07,NE,45,0.0,3.6,96,0.00,,SKC,1.96,VWS V14.00,2013-01-15 16:40:00,
2013-01-15 12:00:00,39.4,38.3,30.06,NNW,338,0.0,1.8,96,0.00,,SKC,1.92,VWS V14.00,2013-01-15 17:00:00,
2013-01-15 12:20:00,39.4,38.3,30.04,SE,135,0.0,0.0,96,0.02,,SKC,1.94,VWS V14.00,2013-01-15 17:20:00,
2013-01-15 12:40:00,39.4,38.3,30.03,NE,45,0.0,0.0,96,0.04,,SKC,1.96,VWS V14.00,2013-01-15 17:40:00,
2013-01-15 13:20:00,39.4,38.3,30.00,NNW,338,0.0,2.2,96,0.10,,SKC,1.98,VWS V14.00,2013-01-15 18:20:00,
2013-01-15 13:40:00,39.4,38.3,30.00,East,90,0.0,0.0,96,0.08,,SKC,1.98,VWS V14.00,2013-01-15 18:40:00,
2013-01-15 14:00:00,39.6,38.5,29.99,SSE,158,0.0,0.0,96,0.06,,SKC,1.94,VWS V14.00,2013-01-15 19:00:00,
2013-01-15 14:20:00,39.6,38.5,29.98,NNE,22,0.0,3.4,96,0.04,,SKC,1.96,VWS V14.00,2013-01-15 19:20:00,
2013-01-15 15:00:00,39.6,38.5,30.00,NE,45,0.0,1.8,96,0.12,,SKC,1.90,VWS V14.00,2013-01-15 20:00:00,
2013-01-15 15:20:00,39.6,38.5,29.99,NE,45,0.0,0.0,96,0.18,,SKC,1.98,VWS V14.00,2013-01-15 20:20:00,
2013-01-15 15:40:00,39.7,38.7,30.00,WNW,292,0.0,0.0,96,0.29,,SKC,2.08,VWS V14.00,2013-01-15 20:40:00,
2013-01-15 16:00:00,39.7,38.7,29.99,ENE,68,0.0,0.0,96,0.24,,SKC,1.96,VWS V14.00,2013-01-15 21:00:00,
2013-01-15 16:20:00,39.9,38.9,29.99,NE,45,0.0,1.3,96,0.18,,SKC,1.98,VWS V14.00,2013-01-15 21:20:00,
2013-01-15 16:40:00,40.1,39.0,29.98,ENE,68,0.0,0.0,96,0.12,,SKC,2.02,VWS V14.00,2013-01-15 21:40:00,
2013-01-15 17:01:00,40.1,39.0,29.98,NE,45,0.0,0.0,96,0.10,,SKC,1.90,VWS V14.00,2013-01-15 22:01:00,
2013-01-15 17:20:00,39.9,38.9,30.00,NNE,22,0.0,0.0,96,0.14,,SKC,1.96,VWS V14.00,2013-01-15 22:20:00,
2013-01-15 17:40:00,40.1,39.0,29.99,NNE,22,0.0,0.0,96,0.12,,SKC,1.98,VWS V14.00,2013-01-15 22:40:00,
2013-01-15 18:00:00,39.9,38.9,29.98,NNE,22,0.0,0.0,96,0.12,,SKC,1.92,VWS V14.00,2013-01-15 23:00:00,
2013-01-15 18:20:00,39.9,38.9,29.98,ENE,68,0.0,0.0,96,0.08,,SKC,1.94,VWS V14.00,2013-01-15 23:20:00,
2013-01-15 18:40:00,39.9,38.9,29.99,NE,45,0.0,0.0,96,0.08,,SKC,1.96,VWS V14.00,2013-01-15 23:40:00,
2013-01-15 19:00:00,39.9,38.9,29.99,North,0,0.0,0.0,96,0.06,,SKC,1.79,VWS V14.00,2013-01-16 00:00:00,
2013-01-15 19:20:00,40.1,39.0,29.99,NNE,22,0.0,0.0,96,0.04,,SKC,1.79,VWS V14.00,2013-01-16 00:20:00,
2013-01-15 19:40:00,40.1,39.0,29.99,NE,45,0.0,0.0,96,0.04,,SKC,1.81,VWS V14.00,2013-01-16 00:40:00,
2013-01-15 20:00:00,40.3,39.2,29.98,ENE,68,0.0,0.0,96,0.02,,SKC,1.69,VWS V14.00,2013-01-16 01:00:00,
2013-01-15 20:20:00,40.5,39.4,29.96,NNE,22,0.0,1.1,96,0.02,,SKC,1.69,VWS V14.00,2013-01-16 01:20:00,
2013-01-15 20:40:00,40.5,39.4,29.97,East,90,0.0,2.9,96,0.00,,SKC,1.69,VWS V14.00,2013-01-16 01:40:00,
2013-01-15 21:00:00,40.6,39.6,29.97,East,90,0.0,0.0,96,0.00,,SKC,1.61,VWS V14.00,2013-01-16 02:00:00,
2013-01-15 21:20:00,40.6,39.6,29.97,East,90,0.0,0.0,96,0.00,,SKC,1.61,VWS V14.00,2013-01-16 02:20:00,
2013-01-15 21:40:00,40.6,39.6,29.98,East,90,0.0,0.0,96,0.00,,SKC,1.61,VWS V14.00,2013-01-16 02:40:00,
2013-01-15 22:20:00,40.8,39.8,29.95,ENE,68,0.0,0.0,96,0.02,,SKC,1.59,VWS V14.00,2013-01-16 03:20:00,
2013-01-15 22:40:00,40.8,39.8,29.96,ENE,68,0.0,1.3,96,0.04,,SKC,1.61,VWS V14.00,2013-01-16 03:40:00,
2013-01-15 23:20:00,41.0,40.0,29.95,ENE,68,0.0,0.2,96,0.02,,SKC,1.57,VWS V14.00,2013-01-16 04:20:00,
2013-01-15 23:40:00,41.2,40.1,29.94,NNE,22,0.0,0.0,96,0.00,,SKC,1.57,VWS V14.00,2013-01-16 04:40:00,